California Valley, California
Current Conditions -  °F | °C
As of 9:51 PM on Monday 20 Oct 2014 (Local Time) from KSMX Reporting Station
Clear Clear  
Wind Chill: 61°   Ceiling: Unl
Heat Index: 61°   Visibility: 8mi
Dew Point: 56°   Wind: 3mph
Humidity: 83%   Direction: 330°NNW
Pressure: 29.99"   Gusts: NA
Location:  35.235°N, 120.021°W
Report Text: KSMX 210451Z AUTO 33003KT 8SM CLR 16/13 A2999 RMK AO2 SLP156 T01610133
Loading
Personal Weather Stations






























Interactive Weather Map
Tropical Storm Tracking
New forecast layout! Learn more

10-Day Weather Forecast

Advertisements
Track Severe Weather on mobile